createdAt,value
2017-08-14T00:01:30.975Z,16.20
2017-08-14T00:03:58.388Z,17.13
2017-08-14T00:06:25.783Z,17.07
2017-08-14T00:08:53.194Z,16.40
2017-08-14T00:11:20.591Z,17.03
2017-08-14T00:13:47.998Z,17.50
2017-08-14T00:16:15.423Z,15.90
2017-08-14T00:18:42.825Z,16.10
2017-08-14T00:21:10.218Z,17.20
2017-08-14T00:23:37.639Z,15.83
2017-08-14T00:26:05.057Z,16.43
2017-08-14T00:28:32.451Z,15.60
2017-08-14T00:30:59.876Z,15.53
2017-08-14T00:33:27.269Z,16.40
2017-08-14T00:35:54.671Z,16.07
2017-08-14T00:38:22.095Z,17.27
2017-08-14T00:40:49.496Z,16.30
2017-08-14T00:43:16.899Z,15.83
2017-08-14T00:45:44.308Z,15.43
2017-08-14T00:48:11.706Z,15.17
2017-08-14T00:50:39.106Z,16.60
2017-08-14T00:53:06.523Z,15.97
2017-08-14T00:55:33.919Z,16.43
2017-08-14T00:58:01.322Z,15.07
2017-08-14T01:00:28.751Z,14.60
2017-08-14T01:02:56.147Z,17.40
2017-08-14T01:05:23.551Z,16.00
2017-08-14T01:07:51.183Z,16.67
2017-08-14T01:10:18.580Z,15.60
2017-08-14T01:12:45.975Z,17.93
2017-08-14T01:15:13.383Z,17.83
2017-08-14T01:17:40.779Z,16.27
2017-08-14T01:20:08.175Z,17.20
2017-08-14T01:22:35.599Z,16.90
2017-08-14T01:25:02.995Z,16.43
2017-08-14T01:27:30.394Z,16.13
2017-08-14T01:29:57.817Z,18.10
2017-08-14T01:32:25.207Z,17.93
2017-08-14T01:34:52.607Z,16.57
2017-08-14T01:37:20.014Z,16.07
2017-08-14T01:39:47.410Z,17.10
2017-08-14T01:42:14.811Z,15.80
2017-08-14T01:44:42.223Z,17.30
2017-08-14T01:47:09.624Z,17.70
2017-08-14T01:49:37.024Z,17.47
2017-08-14T01:52:04.438Z,15.80
2017-08-14T01:54:31.834Z,15.17
2017-08-14T01:56:59.239Z,17.20
2017-08-14T01:59:26.647Z,16.73
2017-08-14T02:01:54.056Z,16.00
2017-08-14T02:04:21.446Z,16.00
2017-08-14T02:06:48.868Z,17.00
2017-08-14T02:09:16.268Z,16.40
2017-08-14T02:11:43.670Z,15.90
2017-08-14T02:14:11.081Z,15.73
2017-08-14T02:16:38.487Z,15.70
2017-08-14T02:19:05.882Z,16.00
2017-08-14T02:21:33.296Z,16.10
2017-08-14T02:24:00.707Z,16.23
2017-08-14T02:26:28.107Z,15.93
2017-08-14T02:28:55.523Z,15.33
2017-08-14T02:31:22.920Z,15.83
2017-08-14T02:33:50.320Z,16.93
2017-08-14T02:36:17.735Z,16.87
2017-08-14T02:38:45.139Z,16.47
2017-08-14T02:41:12.539Z,16.57
2017-08-14T02:43:39.995Z,16.47
2017-08-14T02:46:07.392Z,15.80
2017-08-14T02:48:34.802Z,16.90
2017-08-14T02:51:02.219Z,15.77
2017-08-14T02:53:29.624Z,16.97
2017-08-14T02:55:57.018Z,17.60
2017-08-14T02:58:24.424Z,17.50
2017-08-14T03:00:51.819Z,16.60
2017-08-14T03:03:19.229Z,15.80
2017-08-14T03:05:46.643Z,17.10
2017-08-14T03:08:14.039Z,15.80
2017-08-14T03:10:41.435Z,15.63
2017-08-14T03:13:08.859Z,17.80
2017-08-14T03:15:36.260Z,16.50
2017-08-14T03:18:03.651Z,17.13
2017-08-14T03:20:31.076Z,16.00
2017-08-14T03:22:58.471Z,15.63
2017-08-14T03:25:25.874Z,16.50
2017-08-14T03:27:53.291Z,16.37
2017-08-14T03:30:20.697Z,16.90
2017-08-14T03:32:48.098Z,16.57
2017-08-14T03:35:15.530Z,16.67
2017-08-14T03:37:42.931Z,16.40
2017-08-14T03:40:10.327Z,17.00
2017-08-14T03:42:37.924Z,17.27
2017-08-14T03:45:05.319Z,17.43
2017-08-14T03:47:32.719Z,16.70
2017-08-14T03:50:00.126Z,15.80
2017-08-14T03:52:27.522Z,18.63
2017-08-14T03:54:54.919Z,18.30
2017-08-14T03:57:22.345Z,17.07
2017-08-14T03:59:49.741Z,18.30
2017-08-14T04:02:17.139Z,17.80
2017-08-14T04:04:44.551Z,17.87
2017-08-14T04:07:11.955Z,17.80
2017-08-14T04:09:39.354Z,17.17
2017-08-14T04:12:06.766Z,17.27
2017-08-14T04:14:34.163Z,17.30
2017-08-14T04:17:01.564Z,17.10
2017-08-14T04:19:28.984Z,18.60
2017-08-14T04:21:56.382Z,18.10
2017-08-14T04:24:23.779Z,17.93
2017-08-14T04:26:51.203Z,18.53
2017-08-14T04:29:18.604Z,17.07
2017-08-14T04:31:46.003Z,17.77
2017-08-14T04:34:13.420Z,16.20
2017-08-14T04:36:40.817Z,15.20
2017-08-14T04:39:08.224Z,16.17
2017-08-14T04:41:35.655Z,15.43
2017-08-14T04:44:03.062Z,15.93
2017-08-14T04:46:30.463Z,15.70
2017-08-14T04:48:57.885Z,18.33
2017-08-14T04:51:25.279Z,17.53
2017-08-14T04:53:52.679Z,16.83
2017-08-14T04:56:20.092Z,16.60
2017-08-14T04:58:47.486Z,15.73
2017-08-14T05:01:14.887Z,17.30
2017-08-14T05:03:42.299Z,16.50
2017-08-14T05:06:09.691Z,15.33
2017-08-14T05:08:37.103Z,15.33
2017-08-14T05:11:04.563Z,16.80
2017-08-14T05:13:31.952Z,17.67
2017-08-14T05:15:59.364Z,16.60
2017-08-14T05:18:26.764Z,16.67
2017-08-14T05:20:54.178Z,17.30
2017-08-14T05:23:21.572Z,17.13
2017-08-14T05:25:48.971Z,15.80
2017-08-14T05:28:16.387Z,15.80
2017-08-14T05:30:43.782Z,17.47
2017-08-14T05:33:11.196Z,17.10
2017-08-14T05:35:38.598Z,16.33
2017-08-14T05:38:05.999Z,16.07
2017-08-14T05:40:33.395Z,16.97
2017-08-14T05:43:00.804Z,17.40
2017-08-14T05:45:28.200Z,17.47
2017-08-14T05:47:55.591Z,16.00
2017-08-14T05:50:23.002Z,16.00
2017-08-14T05:52:50.399Z,15.90
2017-08-14T05:55:17.815Z,15.87
2017-08-14T05:57:45.215Z,15.50
2017-08-14T06:00:12.611Z,14.23
2017-08-14T06:02:40.019Z,16.53
2017-08-14T06:05:07.419Z,15.20
2017-08-14T06:07:34.852Z,16.63
2017-08-14T06:10:02.228Z,15.67
2017-08-14T06:12:29.627Z,17.10
2017-08-14T06:14:57.034Z,16.80
2017-08-14T06:17:24.438Z,15.20
2017-08-14T06:19:51.863Z,15.23
2017-08-14T06:22:19.264Z,14.30
2017-08-14T06:24:46.674Z,14.67
2017-08-14T06:27:14.076Z,14.40
2017-08-14T06:29:41.476Z,14.63
2017-08-14T06:32:08.894Z,15.10
2017-08-14T06:34:36.300Z,13.77
2017-08-14T06:37:03.698Z,12.13
2017-08-14T06:39:31.125Z,13.60
2017-08-14T06:41:58.529Z,14.37
2017-08-14T06:44:25.948Z,12.17
2017-08-14T06:46:53.343Z,12.43
2017-08-14T06:49:20.746Z,11.23
2017-08-14T06:51:48.155Z,11.77
2017-08-14T06:54:15.550Z,11.13
2017-08-14T06:56:42.978Z,12.30
2017-08-14T06:59:10.385Z,12.83
2017-08-14T07:01:37.788Z,12.00
2017-08-14T07:04:05.194Z,13.30
2017-08-14T07:06:32.592Z,13.30
2017-08-14T07:09:00.002Z,12.93
2017-08-14T07:11:27.403Z,11.90
2017-08-14T07:13:54.829Z,12.80
2017-08-14T07:16:22.243Z,11.97
2017-08-14T07:18:49.638Z,11.47
2017-08-14T07:21:17.051Z,12.10
2017-08-14T07:23:44.455Z,11.03
2017-08-14T07:26:11.847Z,11.53
2017-08-14T07:28:39.259Z,11.73
2017-08-14T07:31:06.667Z,11.47
2017-08-14T07:33:34.087Z,11.10
2017-08-14T07:36:01.488Z,11.10
2017-08-14T07:38:28.887Z,10.60
2017-08-14T07:40:56.294Z,11.33
2017-08-14T07:43:23.703Z,11.20
2017-08-14T07:45:51.143Z,9.73
2017-08-14T07:48:18.539Z,10.40
2017-08-14T07:50:45.934Z,9.77
2017-08-14T07:53:13.342Z,9.33
2017-08-14T07:55:40.731Z,9.40
2017-08-14T07:58:08.143Z,9.83
2017-08-14T08:00:35.539Z,9.53
2017-08-14T08:03:02.931Z,10.33
2017-08-14T08:05:30.335Z,9.63
2017-08-14T08:07:57.732Z,10.13
2017-08-14T08:10:25.160Z,9.90
2017-08-14T08:12:52.559Z,10.00
2017-08-14T08:15:19.954Z,9.53
2017-08-14T08:17:47.368Z,8.50
2017-08-14T08:20:14.775Z,9.70
2017-08-14T08:22:42.197Z,10.00
2017-08-14T08:25:09.590Z,9.80
2017-08-14T08:27:36.987Z,8.90
2017-08-14T08:30:04.387Z,9.83
2017-08-14T08:32:31.779Z,9.60
2017-08-14T08:34:59.183Z,8.73
2017-08-14T08:37:26.579Z,9.83
2017-08-14T08:39:53.972Z,9.33
2017-08-14T08:42:21.374Z,9.53
2017-08-14T08:44:48.771Z,9.73
2017-08-14T08:47:16.199Z,10.47
2017-08-14T08:49:43.590Z,10.00
2017-08-14T08:52:11.000Z,9.77
2017-08-14T08:54:38.410Z,9.57
2017-08-14T08:57:05.799Z,9.17
2017-08-14T08:59:33.215Z,10.10
2017-08-14T09:02:00.620Z,9.30
2017-08-14T09:04:28.012Z,8.70
2017-08-14T09:06:55.410Z,9.73
2017-08-14T09:09:22.803Z,9.13
2017-08-14T09:11:50.217Z,8.97
2017-08-14T09:14:17.607Z,9.30
2017-08-14T09:16:44.999Z,9.00
2017-08-14T09:19:12.417Z,9.87
2017-08-14T09:21:39.819Z,9.37
2017-08-14T09:24:07.232Z,8.63
2017-08-14T09:26:34.624Z,9.23
2017-08-14T09:29:02.017Z,9.50
2017-08-14T09:31:29.415Z,9.30
2017-08-14T09:33:56.807Z,9.00
2017-08-14T09:36:24.215Z,9.27
2017-08-14T09:38:51.617Z,8.30
2017-08-14T09:41:19.004Z,9.27
2017-08-14T09:43:46.415Z,9.17
2017-08-14T09:46:13.827Z,9.70
2017-08-14T09:48:41.231Z,8.60
2017-08-14T09:51:08.623Z,9.27
2017-08-14T09:53:36.016Z,8.20
2017-08-14T09:56:03.420Z,7.70
2017-08-14T09:58:30.807Z,8.83
2017-08-14T10:00:58.228Z,8.60
2017-08-14T10:03:25.624Z,9.40
2017-08-14T10:05:53.016Z,9.30
2017-08-14T10:08:20.728Z,9.03
2017-08-14T10:10:48.136Z,9.73
2017-08-14T10:13:15.539Z,8.10
2017-08-14T10:15:42.927Z,9.80
2017-08-14T10:18:10.318Z,8.53
2017-08-14T10:20:37.718Z,9.17
2017-08-14T10:23:05.108Z,9.00
2017-08-14T10:25:32.511Z,9.30
2017-08-14T10:27:59.915Z,8.67
2017-08-14T10:30:27.311Z,10.57
2017-08-14T10:32:54.707Z,9.03
2017-08-14T10:35:22.101Z,9.63
2017-08-14T10:37:49.511Z,9.10
2017-08-14T10:40:16.903Z,8.90
2017-08-14T10:42:44.297Z,9.67
2017-08-14T10:45:11.695Z,8.50
2017-08-14T10:47:39.095Z,9.00
2017-08-14T10:50:06.506Z,8.63
2017-08-14T10:52:33.896Z,7.93
2017-08-14T10:55:01.296Z,8.10
2017-08-14T10:57:28.695Z,9.00
2017-08-14T10:59:56.086Z,9.07
2017-08-14T11:02:23.495Z,10.43
2017-08-14T11:04:50.887Z,8.90
2017-08-14T11:07:18.288Z,9.60
2017-08-14T11:09:45.678Z,9.20
2017-08-14T11:12:13.076Z,9.87
2017-08-14T11:14:40.483Z,9.23
2017-08-14T11:17:07.874Z,9.17
2017-08-14T11:19:35.275Z,9.53
2017-08-14T11:22:02.688Z,9.67
2017-08-14T11:24:30.075Z,9.33
2017-08-14T11:26:57.491Z,10.23
2017-08-14T11:29:24.894Z,9.50
2017-08-14T11:31:52.315Z,9.67
2017-08-14T11:34:19.711Z,8.90
2017-08-14T11:36:47.115Z,9.50
2017-08-14T11:39:14.523Z,9.70
2017-08-14T11:41:41.934Z,8.80
2017-08-14T11:44:09.326Z,8.93
2017-08-14T11:46:36.740Z,10.53
2017-08-14T11:49:04.137Z,9.50
2017-08-14T11:51:31.569Z,8.83
2017-08-14T11:53:58.964Z,9.47
2017-08-14T11:56:26.356Z,9.33
2017-08-14T11:58:53.755Z,9.20
2017-08-14T12:01:21.151Z,10.23
2017-08-14T12:03:48.567Z,9.80
2017-08-14T12:06:15.954Z,8.70
2017-08-14T12:08:43.348Z,8.30
2017-08-14T12:11:10.743Z,8.97
2017-08-14T12:13:38.132Z,9.10
2017-08-14T12:16:05.536Z,9.50
2017-08-14T12:18:32.933Z,9.30
2017-08-14T12:21:00.324Z,8.70
2017-08-14T12:23:27.728Z,9.07
2017-08-14T12:25:55.127Z,9.70
2017-08-14T12:28:22.541Z,9.47
2017-08-14T12:30:49.928Z,9.37
2017-08-14T12:33:18.176Z,9.80
2017-08-14T12:35:45.572Z,9.53
2017-08-14T12:38:12.959Z,9.00
2017-08-14T12:40:40.391Z,9.20
2017-08-14T12:43:07.788Z,8.70
2017-08-14T12:45:35.503Z,8.60
2017-08-14T12:48:02.915Z,9.67
2017-08-14T12:50:30.303Z,8.47
2017-08-14T12:52:57.711Z,9.50
2017-08-14T12:55:25.108Z,8.37
2017-08-14T12:57:52.498Z,8.50
2017-08-14T13:00:19.900Z,9.10
2017-08-14T13:02:47.296Z,8.83
2017-08-14T13:05:14.723Z,8.80
2017-08-14T13:07:42.110Z,9.77
2017-08-14T13:10:09.501Z,8.67
2017-08-14T13:12:36.899Z,9.00
2017-08-14T13:15:04.299Z,9.93
2017-08-14T13:17:31.698Z,8.90
2017-08-14T13:19:59.094Z,9.40
2017-08-14T13:22:26.486Z,9.17
2017-08-14T13:24:53.891Z,9.47
2017-08-14T13:27:21.295Z,9.10
2017-08-14T13:29:48.702Z,9.77
2017-08-14T13:32:16.103Z,9.97
2017-08-14T13:34:43.507Z,10.23
2017-08-14T13:37:10.910Z,10.30
2017-08-14T13:39:38.312Z,9.60
2017-08-14T13:42:05.705Z,9.50
2017-08-14T13:44:33.103Z,8.93
2017-08-14T13:47:00.499Z,10.03
2017-08-14T13:49:27.892Z,8.67
2017-08-14T13:51:55.290Z,9.83
2017-08-14T13:54:22.683Z,9.60
2017-08-14T13:56:50.092Z,9.90
2017-08-14T13:59:17.487Z,11.03
2017-08-14T14:01:44.892Z,11.47
2017-08-14T14:04:12.291Z,10.77
2017-08-14T14:06:39.686Z,10.20
2017-08-14T14:09:07.103Z,10.30
2017-08-14T14:11:34.495Z,10.30
2017-08-14T14:14:01.908Z,10.50
2017-08-14T14:16:29.311Z,10.23
2017-08-14T14:18:56.713Z,10.03
2017-08-14T14:21:24.116Z,9.47
2017-08-14T14:23:51.512Z,10.10
2017-08-14T14:26:18.935Z,10.33
2017-08-14T14:28:46.335Z,9.97
2017-08-14T14:31:13.735Z,10.67
2017-08-14T14:33:41.140Z,10.00
2017-08-14T14:36:08.585Z,10.50
2017-08-14T14:38:35.995Z,10.57
2017-08-14T14:41:03.403Z,11.03
2017-08-14T14:43:30.823Z,10.00
2017-08-14T14:45:58.216Z,11.07
2017-08-14T14:48:25.623Z,10.97
2017-08-14T14:50:53.041Z,10.47
2017-08-14T14:53:20.435Z,11.17
2017-08-14T14:55:47.852Z,10.40
2017-08-14T14:58:15.257Z,10.67
2017-08-14T15:00:42.689Z,10.63
2017-08-14T15:03:10.088Z,10.53
2017-08-14T15:05:37.488Z,10.33
2017-08-14T15:08:04.887Z,9.33
2017-08-14T15:10:32.299Z,10.43
2017-08-14T15:12:59.699Z,9.97
2017-08-14T15:15:27.116Z,10.10
2017-08-14T15:17:54.523Z,11.13
2017-08-14T15:20:22.176Z,10.53
2017-08-14T15:22:49.587Z,10.77
2017-08-14T15:25:16.988Z,10.60
2017-08-14T15:27:44.428Z,12.00
2017-08-14T15:30:11.801Z,11.20
2017-08-14T15:32:39.195Z,10.80
2017-08-14T15:35:06.608Z,10.83
2017-08-14T15:37:34.006Z,10.57
2017-08-14T15:40:01.431Z,10.50
2017-08-14T15:42:28.831Z,10.87
2017-08-14T15:44:56.239Z,11.10
2017-08-14T15:47:23.639Z,10.27
2017-08-14T15:49:51.053Z,12.00
2017-08-14T15:52:18.495Z,10.70
2017-08-14T15:54:45.900Z,9.90
2017-08-14T15:57:13.283Z,9.50
2017-08-14T15:59:40.691Z,11.10
2017-08-14T16:02:08.087Z,10.13
2017-08-14T16:04:35.503Z,10.67
2017-08-14T16:07:02.899Z,10.40
2017-08-14T16:09:30.291Z,9.23
2017-08-14T16:11:57.709Z,11.23
2017-08-14T16:14:25.110Z,10.60
2017-08-14T16:16:52.530Z,11.10
2017-08-14T16:19:42.614Z,11.03
2017-08-14T16:22:10.034Z,11.43
2017-08-14T16:24:37.433Z,10.93
2017-08-14T16:27:04.839Z,11.00
2017-08-14T16:29:32.248Z,10.90
2017-08-14T16:31:59.654Z,11.80
2017-08-14T16:34:27.063Z,10.47
2017-08-14T16:36:54.468Z,10.03
2017-08-14T16:39:21.865Z,9.83
2017-08-14T16:41:49.271Z,10.30
2017-08-14T16:44:16.669Z,9.70
2017-08-14T16:46:44.077Z,10.30
2017-08-14T16:49:11.480Z,10.67
2017-08-14T16:51:38.897Z,10.00
2017-08-14T16:54:06.299Z,10.40
2017-08-14T16:56:33.704Z,11.03
2017-08-14T16:59:01.111Z,11.70
2017-08-14T17:01:28.525Z,10.67
2017-08-14T17:03:55.920Z,10.40
2017-08-14T17:06:23.316Z,10.17
2017-08-14T17:08:50.727Z,10.53
2017-08-14T17:11:18.132Z,10.60
2017-08-14T17:13:45.531Z,10.93
2017-08-14T17:16:12.947Z,11.13
2017-08-14T17:18:40.342Z,11.13
2017-08-14T17:21:07.771Z,10.77
2017-08-14T17:23:35.172Z,11.13
2017-08-14T17:26:02.570Z,10.20
2017-08-14T17:28:29.983Z,10.60
2017-08-14T17:30:57.374Z,10.20
2017-08-14T17:33:24.795Z,10.00
2017-08-14T17:35:52.195Z,11.47
2017-08-14T17:38:19.596Z,11.07
2017-08-14T17:40:47.052Z,10.30
2017-08-14T17:43:14.454Z,11.07
2017-08-14T17:45:41.855Z,10.60
2017-08-14T17:48:09.276Z,11.27
2017-08-14T17:50:36.683Z,11.53
2017-08-14T17:53:04.090Z,11.23
2017-08-14T17:55:31.502Z,12.83
2017-08-14T17:57:58.907Z,13.00
2017-08-14T18:00:26.309Z,12.70
2017-08-14T18:02:53.728Z,12.23
2017-08-14T18:05:21.128Z,12.57
2017-08-14T18:07:48.527Z,13.40
2017-08-14T18:10:15.943Z,12.77
2017-08-14T18:12:43.348Z,12.60
2017-08-14T18:15:10.743Z,12.30
2017-08-14T18:17:38.150Z,12.10
2017-08-14T18:20:05.548Z,12.40
2017-08-14T18:22:32.953Z,12.63
2017-08-14T18:25:00.370Z,12.67
2017-08-14T18:27:27.772Z,12.27
2017-08-14T18:29:55.176Z,12.10
2017-08-14T18:32:22.587Z,12.30
2017-08-14T18:34:49.988Z,11.57
2017-08-14T18:37:17.382Z,12.50
2017-08-14T18:39:44.808Z,12.40
2017-08-14T18:42:12.216Z,13.00
2017-08-14T18:44:39.616Z,12.57
2017-08-14T18:47:07.036Z,12.73
2017-08-14T18:49:34.435Z,14.50
2017-08-14T18:52:01.836Z,13.03
2017-08-14T18:54:29.245Z,12.37
2017-08-14T18:56:56.642Z,12.60
2017-08-14T18:59:24.043Z,12.63
2017-08-14T19:01:51.459Z,12.77
2017-08-14T19:04:18.859Z,11.90
2017-08-14T19:06:46.264Z,12.97
2017-08-14T19:09:15.307Z,13.40
2017-08-14T19:11:41.079Z,11.40
2017-08-14T19:14:08.485Z,13.00
2017-08-14T19:16:35.919Z,12.57
2017-08-14T19:19:03.324Z,13.43
2017-08-14T19:21:30.720Z,13.80
2017-08-14T19:23:58.135Z,13.60
2017-08-14T19:26:25.535Z,14.30
2017-08-14T19:28:52.940Z,13.20
2017-08-14T19:31:20.359Z,13.07
2017-08-14T19:33:47.760Z,13.50
2017-08-14T19:36:15.211Z,14.27
2017-08-14T19:38:42.625Z,13.67
2017-08-14T19:41:10.021Z,13.33
2017-08-14T19:43:37.420Z,14.57
2017-08-14T19:46:04.844Z,14.53
2017-08-14T19:48:32.291Z,14.23
2017-08-14T19:50:59.675Z,14.60
2017-08-14T19:53:27.099Z,14.43
2017-08-14T19:55:54.502Z,14.53
2017-08-14T19:58:21.907Z,14.90
2017-08-14T20:00:49.314Z,14.83
2017-08-14T20:03:16.720Z,14.10
2017-08-14T20:05:44.107Z,14.03
2017-08-14T20:08:11.523Z,15.20
2017-08-14T20:10:38.919Z,14.80
2017-08-14T20:13:06.323Z,14.37
2017-08-14T20:15:33.739Z,13.93
2017-08-14T20:18:01.139Z,13.70
2017-08-14T20:20:28.535Z,13.20
2017-08-14T20:22:55.950Z,13.40
2017-08-14T20:25:23.375Z,14.30
2017-08-14T20:27:50.772Z,13.77
2017-08-14T20:30:18.192Z,13.60
2017-08-14T20:32:45.599Z,13.10
2017-08-14T20:35:13.008Z,14.30
2017-08-14T20:37:40.448Z,13.57
2017-08-14T20:40:07.847Z,13.73
2017-08-14T20:42:35.246Z,13.03
2017-08-14T20:45:02.671Z,13.60
2017-08-14T20:47:30.071Z,13.73
2017-08-14T20:49:57.472Z,12.83
2017-08-14T20:52:24.888Z,13.17
2017-08-14T20:54:52.285Z,13.23
2017-08-14T20:57:19.698Z,14.27
2017-08-14T20:59:47.110Z,15.00
2017-08-14T21:02:14.524Z,14.70
2017-08-14T21:04:41.941Z,13.80
2017-08-14T21:07:09.583Z,14.57
2017-08-14T21:09:36.983Z,14.00
2017-08-14T21:12:04.391Z,14.20
2017-08-14T21:14:31.803Z,13.60
2017-08-14T21:16:59.212Z,13.43
2017-08-14T21:19:26.614Z,14.33
2017-08-14T21:21:54.031Z,13.87
2017-08-14T21:24:21.431Z,13.83
2017-08-14T21:26:48.831Z,14.33
2017-08-14T21:29:16.248Z,14.50
2017-08-14T21:31:43.639Z,13.77
2017-08-14T21:34:11.050Z,14.87
2017-08-14T21:36:38.453Z,14.33
2017-08-14T21:39:05.854Z,15.03
2017-08-14T21:41:33.255Z,13.73
2017-08-14T21:44:00.704Z,14.73
2017-08-14T21:46:28.102Z,13.40
2017-08-14T21:48:55.502Z,14.00
2017-08-14T21:51:22.916Z,14.03
2017-08-14T21:53:50.311Z,14.30
2017-08-14T21:56:17.706Z,14.77
2017-08-14T21:58:45.116Z,14.27
2017-08-14T22:01:12.515Z,14.10
2017-08-14T22:03:39.927Z,14.80
2017-08-14T22:06:07.344Z,13.70
2017-08-14T22:08:34.740Z,14.23
2017-08-14T22:11:02.139Z,15.40
2017-08-14T22:13:29.553Z,14.90
2017-08-14T22:15:56.951Z,15.70
2017-08-14T22:18:24.351Z,13.90
2017-08-14T22:20:51.766Z,14.17
2017-08-14T22:23:19.163Z,14.20
2017-08-14T22:25:46.564Z,15.43
2017-08-14T22:28:13.986Z,14.20
2017-08-14T22:30:41.391Z,15.43
2017-08-14T22:33:08.784Z,13.80
2017-08-14T22:35:36.199Z,14.10
2017-08-14T22:38:03.598Z,13.93
2017-08-14T22:40:30.995Z,14.07
2017-08-14T22:42:58.411Z,14.90
2017-08-14T22:45:25.816Z,14.00
2017-08-14T22:47:53.219Z,14.70
2017-08-14T22:50:20.635Z,14.80
2017-08-14T22:52:48.032Z,14.30
2017-08-14T22:55:15.436Z,14.00
2017-08-14T22:57:42.844Z,13.80
2017-08-14T23:00:10.250Z,13.60
2017-08-14T23:02:37.643Z,14.20
2017-08-14T23:05:05.064Z,14.63
2017-08-14T23:07:32.460Z,14.70
2017-08-14T23:09:59.862Z,14.60
2017-08-14T23:12:27.282Z,15.60
2017-08-14T23:14:54.684Z,14.40
2017-08-14T23:17:22.087Z,13.70
2017-08-14T23:19:49.500Z,14.20
2017-08-14T23:22:16.897Z,14.53
2017-08-14T23:24:44.295Z,14.17
2017-08-14T23:27:11.710Z,13.57
2017-08-14T23:29:39.103Z,14.90
2017-08-14T23:32:06.506Z,14.57
2017-08-14T23:34:33.919Z,14.10
2017-08-14T23:37:01.323Z,14.57
2017-08-14T23:39:28.724Z,14.23
2017-08-14T23:41:56.134Z,14.40
2017-08-14T23:44:23.534Z,13.50
2017-08-14T23:46:50.930Z,14.07
2017-08-14T23:49:18.341Z,13.63
2017-08-14T23:51:45.743Z,13.80
2017-08-14T23:54:13.139Z,14.17
2017-08-14T23:56:40.556Z,15.10
2017-08-14T23:59:07.961Z,14.23
